createdAt,value
2023-05-10T00:04:57.615Z,90.3
2023-05-10T00:09:53.947Z,90.0
2023-05-10T00:15:10.395Z,90.0
2023-05-10T00:20:40.956Z,90.3
2023-05-10T00:25:13.377Z,90.0
2023-05-10T00:30:29.778Z,90.2
2023-05-10T00:35:36.170Z,90.2
2023-05-10T00:41:50.697Z,90.9
2023-05-10T00:50:45.309Z,90.4
2023-05-10T00:56:25.742Z,91.5
2023-05-10T01:11:21.077Z,90.6
2023-05-10T01:16:27.540Z,90.4
2023-05-10T01:26:39.215Z,90.7
2023-05-10T01:31:50.182Z,90.7
2023-05-10T01:36:56.566Z,90.9
2023-05-10T01:42:02.966Z,90.8
2023-05-10T01:47:09.321Z,90.8
2023-05-10T01:52:15.726Z,91.0
2023-05-10T01:57:22.090Z,90.8
2023-05-10T02:02:30.048Z,90.7
2023-05-10T02:07:36.459Z,90.9
2023-05-10T02:12:42.880Z,90.8
2023-05-10T02:17:50.309Z,90.8
2023-05-10T02:23:16.747Z,90.8
2023-05-10T02:28:03.060Z,90.8
2023-05-10T02:32:59.499Z,90.9
2023-05-10T02:38:05.805Z,90.9
2023-05-10T02:43:22.279Z,90.8
2023-05-10T03:03:47.875Z,90.9
2023-05-10T03:08:54.244Z,90.9
2023-05-10T03:13:50.649Z,90.9
2023-05-10T03:24:15.098Z,91.0
2023-05-10T03:29:21.546Z,91.0
2023-05-10T03:34:27.874Z,91.0
2023-05-10T03:39:58.282Z,91.1
2023-05-10T03:44:42.214Z,91.3
2023-05-10T03:49:48.563Z,91.3
2023-05-10T03:54:54.958Z,91.4
2023-05-10T04:00:45.436Z,91.5
2023-05-10T04:04:57.679Z,91.6
2023-05-10T04:10:14.286Z,92.3
2023-05-10T04:20:26.986Z,92.0
2023-05-10T04:25:23.283Z,92.8
2023-05-10T04:30:29.656Z,93.1
2023-05-10T04:36:10.200Z,92.5
2023-05-10T04:40:52.502Z,92.5
2023-05-10T04:45:58.888Z,92.8
2023-05-10T04:51:05.263Z,92.7
2023-05-10T04:56:11.762Z,92.8
2023-05-10T05:06:14.482Z,92.8
2023-05-10T05:11:30.912Z,92.6
2023-05-10T05:21:43.716Z,92.8
2023-05-10T05:26:50.112Z,92.6
2023-05-10T05:31:56.472Z,92.8
2023-05-10T05:36:52.906Z,93.8
2023-05-10T05:41:59.402Z,93.1
2023-05-10T05:47:15.794Z,93.3
2023-05-10T06:02:24.971Z,93.7
2023-05-10T06:12:47.768Z,94.3
2023-05-10T06:17:54.132Z,94.7
2023-05-10T06:28:06.994Z,95.2
2023-05-10T06:33:34.511Z,94.9
2023-05-10T06:38:21.113Z,95.6
2023-05-10T06:43:26.464Z,95.1
2023-05-10T06:48:57.852Z,95.3
2023-05-10T06:53:40.179Z,95.2
2023-05-10T06:58:36.552Z,95.1
2023-05-10T07:03:52.922Z,96.2
2023-05-10T07:08:59.323Z,95.7
2023-05-10T07:14:05.720Z,95.7
2023-05-10T07:19:12.088Z,95.7
2023-05-10T07:24:19.033Z,96.2
2023-05-10T07:29:25.658Z,96.1
2023-05-10T07:34:32.015Z,96.5
2023-05-10T07:39:38.400Z,96.1
2023-05-10T07:44:52.373Z,96.5
2023-05-10T07:49:54.706Z,96.8
2023-05-10T07:55:01.081Z,96.8
2023-05-10T08:00:07.484Z,96.8
2023-05-10T08:05:03.827Z,96.8
2023-05-10T08:10:20.257Z,97.1
2023-05-10T08:15:46.861Z,97.0
2023-05-10T08:20:32.993Z,97.0
2023-05-10T08:25:39.385Z,97.1
2023-05-10T08:31:09.884Z,97.2
2023-05-10T08:35:52.137Z,97.2
2023-05-10T08:40:58.508Z,96.9
2023-05-10T08:46:04.887Z,97.0
2023-05-10T08:51:11.293Z,96.8
2023-05-10T08:56:17.644Z,96.8
2023-05-10T09:01:24.111Z,97.1
2023-05-10T09:06:30.417Z,97.2
2023-05-10T09:11:36.783Z,97.1
2023-05-10T09:16:43.294Z,97.0
2023-05-10T09:21:49.668Z,97.1
2023-05-10T09:26:56.190Z,97.0
2023-05-10T09:32:02.571Z,97.3
2023-05-10T09:37:12.972Z,97.4
2023-05-10T09:42:20.982Z,97.6
2023-05-10T09:47:12.230Z,97.6
2023-05-10T09:52:29.630Z,97.9
2023-05-10T09:57:35.975Z,97.7
2023-05-10T10:02:42.405Z,97.8
2023-05-10T10:07:48.820Z,98.0
2023-05-10T10:12:55.181Z,98.1
2023-05-10T10:18:01.643Z,98.0
2023-05-10T10:23:07.957Z,98.0
2023-05-10T10:28:14.335Z,98.1
2023-05-10T10:33:28.375Z,98.1
2023-05-10T10:38:28.912Z,98.3
2023-05-10T10:43:36.817Z,98.3
2023-05-10T10:48:43.192Z,98.1
2023-05-10T10:53:49.676Z,98.1
2023-05-10T10:58:56.031Z,98.0
2023-05-10T11:04:02.461Z,98.2
2023-05-10T11:09:08.820Z,98.1
2023-05-10T11:14:19.199Z,97.6
2023-05-10T11:19:21.581Z,96.8
2023-05-10T11:24:27.972Z,95.9
2023-05-10T11:29:34.334Z,95.4
2023-05-10T11:34:42.283Z,95.3
2023-05-10T11:39:48.704Z,95.0
2023-05-10T11:44:55.193Z,94.3
2023-05-10T11:50:01.546Z,94.2
2023-05-10T11:55:07.965Z,93.1
2023-05-10T12:00:18.616Z,93.3
2023-05-10T12:05:20.778Z,93.5
2023-05-10T12:15:31.906Z,93.0
2023-05-10T12:20:39.422Z,92.2
2023-05-10T12:25:45.794Z,91.5
2023-05-10T12:30:53.770Z,91.2
2023-05-10T12:36:00.110Z,91.2
2023-05-10T12:41:06.502Z,91.2
2023-05-10T12:46:13.021Z,91.3
2023-05-10T12:51:19.343Z,91.5
2023-05-10T12:56:25.905Z,91.7
2023-05-10T13:01:32.345Z,91.9
2023-05-10T13:06:38.659Z,91.9
2023-05-10T13:11:45.589Z,91.9
2023-05-10T13:16:52.018Z,91.8
2023-05-10T13:21:58.334Z,91.9
2023-05-10T13:27:05.802Z,92.0
2023-05-10T13:32:13.785Z,92.1
2023-05-10T13:37:20.170Z,92.4
2023-05-10T13:42:26.532Z,92.4
2023-05-10T13:47:32.950Z,92.0
2023-05-10T13:52:40.854Z,91.8
2023-05-10T13:57:46.228Z,91.5
2023-05-10T14:02:55.350Z,91.4
2023-05-10T14:08:01.565Z,91.2
2023-05-10T14:13:09.517Z,91.3
2023-05-10T14:18:15.942Z,91.2
2023-05-10T14:23:22.257Z,91.2
2023-05-10T14:28:28.858Z,91.2
2023-05-10T14:33:36.316Z,91.3
2023-05-10T14:38:46.682Z,91.2
2023-05-10T14:44:23.124Z,91.3
2023-05-10T14:49:30.620Z,91.3
2023-05-10T15:00:03.488Z,91.3
2023-05-10T15:04:49.845Z,91.4
2023-05-10T15:15:06.215Z,91.5
2023-05-10T15:20:12.643Z,91.8
2023-05-10T15:25:08.955Z,92.3
2023-05-10T15:30:49.408Z,92.2
2023-05-10T15:35:32.941Z,92.3
2023-05-10T15:40:39.431Z,92.3
2023-05-10T15:50:52.195Z,92.4
2023-05-10T15:55:58.561Z,92.4
2023-05-10T16:01:04.992Z,92.5
2023-05-10T16:11:17.732Z,92.7
2023-05-10T16:22:05.148Z,92.6
2023-05-10T16:26:27.389Z,92.5
2023-05-10T16:31:33.801Z,92.4
2023-05-10T16:42:18.056Z,92.2
2023-05-10T16:46:54.335Z,92.1
2023-05-10T16:52:11.394Z,92.4
2023-05-10T16:57:37.779Z,92.2
2023-05-10T17:02:24.160Z,92.2
2023-05-10T17:07:32.564Z,92.6
2023-05-10T17:12:38.949Z,92.4
2023-05-10T17:18:09.633Z,92.4
2023-05-10T17:23:39.430Z,92.5
2023-05-10T17:29:14.942Z,92.5
2023-05-10T17:33:09.242Z,92.5
2023-05-10T17:38:16.302Z,92.5
2023-05-10T17:44:17.779Z,92.4
2023-05-10T17:49:05.238Z,92.5
2023-05-10T17:54:13.203Z,92.5
2023-05-10T17:59:09.541Z,92.6
2023-05-10T18:04:26.110Z,92.3
2023-05-10T18:09:56.592Z,92.2
2023-05-10T18:15:02.930Z,92.1
2023-05-10T18:19:45.376Z,92.2
2023-05-10T18:24:51.912Z,92.1
2023-05-10T18:29:58.332Z,92.4
2023-05-10T18:35:04.761Z,92.1
2023-05-10T18:40:11.203Z,92.1
2023-05-10T18:50:24.039Z,91.9
2023-05-10T18:55:50.453Z,92.0
2023-05-10T19:00:36.922Z,92.1
2023-05-10T19:05:33.414Z,92.1
2023-05-10T19:10:49.828Z,92.0
2023-05-10T19:15:47.271Z,92.1
2023-05-10T19:21:49.476Z,92.1
2023-05-10T19:31:20.662Z,92.3
2023-05-10T19:36:28.081Z,92.5
2023-05-10T19:41:55.662Z,92.4
2023-05-10T19:46:42.055Z,92.4
2023-05-10T19:52:12.412Z,92.5
2023-05-10T19:56:44.725Z,92.5
2023-05-10T20:02:05.179Z,92.6
2023-05-10T20:12:12.939Z,92.8
2023-05-10T20:17:20.538Z,92.7
2023-05-10T20:22:50.926Z,92.7
2023-05-10T20:27:33.309Z,92.8
2023-05-10T20:33:03.811Z,93.0
2023-05-10T20:37:46.123Z,93.0
2023-05-10T20:42:52.633Z,93.0
2023-05-10T20:53:06.564Z,93.1
2023-05-10T21:08:25.827Z,93.3
2023-05-10T21:13:52.211Z,93.4
2023-05-10T21:18:38.666Z,93.5
2023-05-10T21:25:24.172Z,93.5
2023-05-10T21:28:42.699Z,93.6
2023-05-10T21:34:19.132Z,93.7
2023-05-10T21:39:05.475Z,93.6
2023-05-10T21:44:01.941Z,93.6
2023-05-10T21:49:08.388Z,93.8
2023-05-10T21:54:25.008Z,93.8
2023-05-10T21:59:31.428Z,93.8
2023-05-10T22:04:37.920Z,93.9
2023-05-10T22:09:44.313Z,93.9
2023-05-10T22:15:13.843Z,93.9
2023-05-10T22:20:00.177Z,94.0
2023-05-10T22:25:06.549Z,94.0
2023-05-10T22:30:03.064Z,94.0
2023-05-10T22:35:19.579Z,94.0
2023-05-10T22:40:26.053Z,94.0
2023-05-10T22:45:32.430Z,94.0
2023-05-10T22:50:28.805Z,94.0
2023-05-10T22:55:45.176Z,94.1
2023-05-10T23:00:51.553Z,94.2
2023-05-10T23:05:57.950Z,94.1
2023-05-10T23:11:04.458Z,94.1
2023-05-10T23:21:17.252Z,94.2
2023-05-10T23:26:23.613Z,94.0
2023-05-10T23:31:30.021Z,94.0
2023-05-10T23:36:36.425Z,94.0
2023-05-10T23:46:49.153Z,94.1
2023-05-10T23:51:57.297Z,94.1
2023-05-10T23:57:27.629Z,94.1
